sensor_id;sensor_type;location;lat;lon;timestamp;P1;durP1;ratioP1;P2;durP2;ratioP2
30647;SDS011;17683;53.360;9.736;2022-08-07T00:01:27;10.65;;;7.80;;
30647;SDS011;17683;53.360;9.736;2022-08-07T00:03:53;9.82;;;8.77;;
30647;SDS011;17683;53.360;9.736;2022-08-07T00:06:18;10.85;;;9.02;;
30647;SDS011;17683;53.360;9.736;2022-08-07T00:08:44;9.98;;;8.73;;
30647;SDS011;17683;53.360;9.736;2022-08-07T00:11:10;11.30;;;8.18;;
30647;SDS011;17683;53.360;9.736;2022-08-07T00:13:35;10.98;;;8.32;;
30647;SDS011;17683;53.360;9.736;2022-08-07T00:16:02;9.85;;;8.27;;
30647;SDS011;17683;53.360;9.736;2022-08-07T00:18:29;10.68;;;7.72;;
30647;SDS011;17683;53.360;9.736;2022-08-07T00:21:00;7.95;;;7.00;;
30647;SDS011;17683;53.360;9.736;2022-08-07T00:23:28;11.65;;;8.52;;
30647;SDS011;17683;53.360;9.736;2022-08-07T00:25:55;10.43;;;7.35;;
30647;SDS011;17683;53.360;9.736;2022-08-07T00:28:22;10.85;;;8.05;;
30647;SDS011;17683;53.360;9.736;2022-08-07T00:30:48;9.40;;;8.05;;
30647;SDS011;17683;53.360;9.736;2022-08-07T00:33:13;10.68;;;7.82;;
30647;SDS011;17683;53.360;9.736;2022-08-07T00:35:39;13.32;;;7.43;;
30647;SDS011;17683;53.360;9.736;2022-08-07T00:38:05;10.30;;;7.85;;
30647;SDS011;17683;53.360;9.736;2022-08-07T00:40:31;10.90;;;7.63;;
30647;SDS011;17683;53.360;9.736;2022-08-07T00:42:57;8.68;;;7.60;;
30647;SDS011;17683;53.360;9.736;2022-08-07T00:45:23;9.98;;;8.30;;
30647;SDS011;17683;53.360;9.736;2022-08-07T00:47:49;11.10;;;7.53;;
30647;SDS011;17683;53.360;9.736;2022-08-07T00:50:15;9.48;;;7.72;;
30647;SDS011;17683;53.360;9.736;2022-08-07T00:52:41;8.55;;;7.63;;
30647;SDS011;17683;53.360;9.736;2022-08-07T00:55:07;8.48;;;7.18;;
30647;SDS011;17683;53.360;9.736;2022-08-07T00:57:34;8.60;;;7.38;;
30647;SDS011;17683;53.360;9.736;2022-08-07T01:00:00;9.65;;;7.22;;
30647;SDS011;17683;53.360;9.736;2022-08-07T01:02:29;10.40;;;7.30;;
30647;SDS011;17683;53.360;9.736;2022-08-07T01:04:56;9.48;;;7.78;;
30647;SDS011;17683;53.360;9.736;2022-08-07T01:07:22;8.32;;;7.07;;
30647;SDS011;17683;53.360;9.736;2022-08-07T01:09:48;9.38;;;7.88;;
30647;SDS011;17683;53.360;9.736;2022-08-07T01:12:14;9.18;;;7.63;;
30647;SDS011;17683;53.360;9.736;2022-08-07T01:14:41;7.93;;;6.95;;
30647;SDS011;17683;53.360;9.736;2022-08-07T01:17:07;8.82;;;7.75;;
30647;SDS011;17683;53.360;9.736;2022-08-07T01:19:33;12.57;;;7.57;;
30647;SDS011;17683;53.360;9.736;2022-08-07T01:22:00;9.95;;;7.85;;
30647;SDS011;17683;53.360;9.736;2022-08-07T01:24:27;8.32;;;6.97;;
30647;SDS011;17683;53.360;9.736;2022-08-07T01:26:53;8.57;;;7.28;;
30647;SDS011;17683;53.360;9.736;2022-08-07T01:29:23;8.43;;;6.78;;
30647;SDS011;17683;53.360;9.736;2022-08-07T01:31:50;8.85;;;6.40;;
30647;SDS011;17683;53.360;9.736;2022-08-07T01:34:16;8.02;;;7.22;;
30647;SDS011;17683;53.360;9.736;2022-08-07T01:36:43;10.80;;;7.10;;
30647;SDS011;17683;53.360;9.736;2022-08-07T01:39:09;9.73;;;7.63;;
30647;SDS011;17683;53.360;9.736;2022-08-07T01:41:36;9.48;;;6.95;;
30647;SDS011;17683;53.360;9.736;2022-08-07T01:44:03;9.38;;;6.15;;
30647;SDS011;17683;53.360;9.736;2022-08-07T01:46:29;8.70;;;6.88;;
30647;SDS011;17683;53.360;9.736;2022-08-07T01:48:55;7.47;;;6.15;;
30647;SDS011;17683;53.360;9.736;2022-08-07T01:51:22;8.20;;;6.55;;
30647;SDS011;17683;53.360;9.736;2022-08-07T01:53:50;8.73;;;6.13;;
30647;SDS011;17683;53.360;9.736;2022-08-07T01:56:25;8.55;;;6.13;;
30647;SDS011;17683;53.360;9.736;2022-08-07T01:59:14;7.93;;;6.45;;
30647;SDS011;17683;53.360;9.736;2022-08-07T02:01:52;8.45;;;6.47;;
30647;SDS011;17683;53.360;9.736;2022-08-07T02:04:29;9.30;;;6.10;;
30647;SDS011;17683;53.360;9.736;2022-08-07T02:07:02;9.10;;;6.25;;
30647;SDS011;17683;53.360;9.736;2022-08-07T02:09:30;7.15;;;6.03;;
30647;SDS011;17683;53.360;9.736;2022-08-07T02:11:57;6.50;;;5.78;;
30647;SDS011;17683;53.360;9.736;2022-08-07T02:14:41;7.53;;;6.30;;
30647;SDS011;17683;53.360;9.736;2022-08-07T02:17:12;8.48;;;6.85;;
30647;SDS011;17683;53.360;9.736;2022-08-07T02:19:43;7.13;;;5.72;;
30647;SDS011;17683;53.360;9.736;2022-08-07T02:22:10;7.10;;;6.10;;
30647;SDS011;17683;53.360;9.736;2022-08-07T02:24:39;6.97;;;5.97;;
30647;SDS011;17683;53.360;9.736;2022-08-07T02:27:07;7.22;;;6.00;;
30647;SDS011;17683;53.360;9.736;2022-08-07T02:29:34;10.40;;;6.53;;
30647;SDS011;17683;53.360;9.736;2022-08-07T02:32:00;7.32;;;5.72;;
30647;SDS011;17683;53.360;9.736;2022-08-07T02:34:28;7.07;;;5.43;;
30647;SDS011;17683;53.360;9.736;2022-08-07T02:36:58;6.35;;;5.30;;
30647;SDS011;17683;53.360;9.736;2022-08-07T02:39:25;6.95;;;6.22;;
30647;SDS011;17683;53.360;9.736;2022-08-07T02:41:54;7.53;;;5.50;;
30647;SDS011;17683;53.360;9.736;2022-08-07T02:44:20;5.97;;;5.38;;
30647;SDS011;17683;53.360;9.736;2022-08-07T02:46:48;8.45;;;5.22;;
30647;SDS011;17683;53.360;9.736;2022-08-07T02:49:17;8.82;;;5.32;;
30647;SDS011;17683;53.360;9.736;2022-08-07T02:51:43;6.57;;;5.32;;
30647;SDS011;17683;53.360;9.736;2022-08-07T02:54:10;6.90;;;6.22;;
30647;SDS011;17683;53.360;9.736;2022-08-07T02:56:37;8.23;;;5.85;;
30647;SDS011;17683;53.360;9.736;2022-08-07T02:59:07;5.85;;;5.20;;
30647;SDS011;17683;53.360;9.736;2022-08-07T03:01:35;7.30;;;5.45;;
30647;SDS011;17683;53.360;9.736;2022-08-07T03:04:03;6.43;;;5.15;;
30647;SDS011;17683;53.360;9.736;2022-08-07T03:06:31;5.70;;;5.18;;
30647;SDS011;17683;53.360;9.736;2022-08-07T03:08:58;7.65;;;5.40;;
30647;SDS011;17683;53.360;9.736;2022-08-07T03:11:28;7.25;;;6.03;;
30647;SDS011;17683;53.360;9.736;2022-08-07T03:13:55;7.13;;;5.82;;
30647;SDS011;17683;53.360;9.736;2022-08-07T03:16:21;6.28;;;5.55;;
30647;SDS011;17683;53.360;9.736;2022-08-07T03:18:48;17.40;;;6.40;;
30647;SDS011;17683;53.360;9.736;2022-08-07T03:21:14;7.07;;;5.85;;
30647;SDS011;17683;53.360;9.736;2022-08-07T03:23:41;8.35;;;5.63;;
30647;SDS011;17683;53.360;9.736;2022-08-07T03:26:08;6.57;;;5.78;;
30647;SDS011;17683;53.360;9.736;2022-08-07T03:28:35;7.22;;;5.55;;
30647;SDS011;17683;53.360;9.736;2022-08-07T03:31:03;7.15;;;5.43;;
30647;SDS011;17683;53.360;9.736;2022-08-07T03:34:06;6.38;;;5.35;;
30647;SDS011;17683;53.360;9.736;2022-08-07T03:36:32;8.00;;;6.07;;
30647;SDS011;17683;53.360;9.736;2022-08-07T03:39:03;6.07;;;5.47;;
30647;SDS011;17683;53.360;9.736;2022-08-07T03:41:32;7.38;;;5.60;;
30647;SDS011;17683;53.360;9.736;2022-08-07T03:43:59;6.63;;;5.55;;
30647;SDS011;17683;53.360;9.736;2022-08-07T03:46:25;8.45;;;5.65;;
30647;SDS011;17683;53.360;9.736;2022-08-07T03:48:52;7.22;;;5.50;;
30647;SDS011;17683;53.360;9.736;2022-08-07T03:51:19;5.80;;;4.93;;
30647;SDS011;17683;53.360;9.736;2022-08-07T03:53:45;6.55;;;5.82;;
30647;SDS011;17683;53.360;9.736;2022-08-07T03:56:12;6.32;;;5.57;;
30647;SDS011;17683;53.360;9.736;2022-08-07T03:58:42;5.82;;;5.07;;
30647;SDS011;17683;53.360;9.736;2022-08-07T04:01:08;7.75;;;5.45;;
30647;SDS011;17683;53.360;9.736;2022-08-07T04:03:35;6.35;;;5.05;;
30647;SDS011;17683;53.360;9.736;2022-08-07T04:06:01;8.13;;;5.38;;
30647;SDS011;17683;53.360;9.736;2022-08-07T04:08:27;5.90;;;4.93;;
30647;SDS011;17683;53.360;9.736;2022-08-07T04:10:54;5.82;;;4.88;;
30647;SDS011;17683;53.360;9.736;2022-08-07T04:13:20;8.75;;;6.00;;
30647;SDS011;17683;53.360;9.736;2022-08-07T04:15:47;6.25;;;5.05;;
30647;SDS011;17683;53.360;9.736;2022-08-07T04:18:13;6.00;;;5.25;;
30647;SDS011;17683;53.360;9.736;2022-08-07T04:20:40;6.90;;;5.60;;
30647;SDS011;17683;53.360;9.736;2022-08-07T04:23:07;6.57;;;5.78;;
30647;SDS011;17683;53.360;9.736;2022-08-07T04:25:37;5.93;;;5.25;;
30647;SDS011;17683;53.360;9.736;2022-08-07T04:28:07;6.57;;;5.07;;
30647;SDS011;17683;53.360;9.736;2022-08-07T04:30:34;5.60;;;4.55;;
30647;SDS011;17683;53.360;9.736;2022-08-07T04:33:04;7.03;;;5.20;;
30647;SDS011;17683;53.360;9.736;2022-08-07T04:35:31;5.85;;;5.18;;
30647;SDS011;17683;53.360;9.736;2022-08-07T04:37:57;6.13;;;4.68;;
30647;SDS011;17683;53.360;9.736;2022-08-07T04:40:23;5.80;;;4.90;;
30647;SDS011;17683;53.360;9.736;2022-08-07T04:42:49;8.00;;;5.85;;
30647;SDS011;17683;53.360;9.736;2022-08-07T04:45:14;7.13;;;5.50;;
30647;SDS011;17683;53.360;9.736;2022-08-07T04:53:07;6.78;;;5.03;;
30647;SDS011;17683;53.360;9.736;2022-08-07T05:00:52;7.55;;;5.43;;
30647;SDS011;17683;53.360;9.736;2022-08-07T05:06:11;13.30;;;5.03;;
30647;SDS011;17683;53.360;9.736;2022-08-07T05:11:34;6.32;;;5.03;;
30647;SDS011;17683;53.360;9.736;2022-08-07T05:14:07;7.22;;;5.75;;
30647;SDS011;17683;53.360;9.736;2022-08-07T05:16:36;6.75;;;5.30;;
30647;SDS011;17683;53.360;9.736;2022-08-07T05:19:08;7.40;;;6.05;;
30647;SDS011;17683;53.360;9.736;2022-08-07T05:21:36;6.43;;;5.70;;
30647;SDS011;17683;53.360;9.736;2022-08-07T05:24:11;7.15;;;5.70;;
30647;SDS011;17683;53.360;9.736;2022-08-07T05:26:41;7.43;;;5.72;;
30647;SDS011;17683;53.360;9.736;2022-08-07T05:29:08;7.35;;;5.70;;
30647;SDS011;17683;53.360;9.736;2022-08-07T05:31:38;7.15;;;5.85;;
30647;SDS011;17683;53.360;9.736;2022-08-07T05:34:07;7.15;;;5.85;;
30647;SDS011;17683;53.360;9.736;2022-08-07T05:36:35;10.15;;;5.90;;
30647;SDS011;17683;53.360;9.736;2022-08-07T05:39:03;6.10;;;5.28;;
30647;SDS011;17683;53.360;9.736;2022-08-07T05:41:30;7.53;;;6.13;;
30647;SDS011;17683;53.360;9.736;2022-08-07T05:43:56;8.10;;;6.25;;
30647;SDS011;17683;53.360;9.736;2022-08-07T05:46:23;8.20;;;6.38;;
30647;SDS011;17683;53.360;9.736;2022-08-07T05:48:50;7.97;;;6.53;;
30647;SDS011;17683;53.360;9.736;2022-08-07T05:51:17;6.72;;;5.80;;
30647;SDS011;17683;53.360;9.736;2022-08-07T05:53:44;7.28;;;6.25;;
30647;SDS011;17683;53.360;9.736;2022-08-07T05:56:11;11.73;;;7.47;;
30647;SDS011;17683;53.360;9.736;2022-08-07T05:58:39;8.73;;;7.40;;
30647;SDS011;17683;53.360;9.736;2022-08-07T06:01:08;10.05;;;8.00;;
30647;SDS011;17683;53.360;9.736;2022-08-07T06:03:35;13.85;;;9.38;;
30647;SDS011;17683;53.360;9.736;2022-08-07T06:06:03;10.05;;;8.00;;
30647;SDS011;17683;53.360;9.736;2022-08-07T06:08:30;11.48;;;8.30;;
30647;SDS011;17683;53.360;9.736;2022-08-07T06:10:57;10.88;;;8.10;;
30647;SDS011;17683;53.360;9.736;2022-08-07T06:13:24;11.05;;;8.45;;
30647;SDS011;17683;53.360;9.736;2022-08-07T06:15:50;10.70;;;9.00;;
30647;SDS011;17683;53.360;9.736;2022-08-07T06:18:18;10.75;;;8.65;;
30647;SDS011;17683;53.360;9.736;2022-08-07T06:20:45;15.65;;;8.82;;
30647;SDS011;17683;53.360;9.736;2022-08-07T06:23:12;9.15;;;7.90;;
30647;SDS011;17683;53.360;9.736;2022-08-07T06:25:38;9.73;;;8.52;;
30647;SDS011;17683;53.360;9.736;2022-08-07T06:28:06;12.52;;;8.82;;
30647;SDS011;17683;53.360;9.736;2022-08-07T06:30:34;10.90;;;8.48;;
30647;SDS011;17683;53.360;9.736;2022-08-07T06:33:01;11.10;;;7.80;;
30647;SDS011;17683;53.360;9.736;2022-08-07T06:35:27;11.27;;;9.20;;
30647;SDS011;17683;53.360;9.736;2022-08-07T06:37:53;11.95;;;8.57;;
30647;SDS011;17683;53.360;9.736;2022-08-07T06:40:20;11.02;;;8.13;;
30647;SDS011;17683;53.360;9.736;2022-08-07T06:42:46;13.15;;;8.98;;
30647;SDS011;17683;53.360;9.736;2022-08-07T06:45:14;11.07;;;7.68;;
30647;SDS011;17683;53.360;9.736;2022-08-07T06:47:42;11.77;;;8.07;;
30647;SDS011;17683;53.360;9.736;2022-08-07T06:50:08;9.10;;;7.22;;
30647;SDS011;17683;53.360;9.736;2022-08-07T06:52:35;8.60;;;6.63;;
30647;SDS011;17683;53.360;9.736;2022-08-07T06:55:03;10.98;;;6.78;;
30647;SDS011;17683;53.360;9.736;2022-08-07T06:57:33;11.25;;;7.05;;
30647;SDS011;17683;53.360;9.736;2022-08-07T07:00:01;9.80;;;6.75;;
30647;SDS011;17683;53.360;9.736;2022-08-07T07:02:27;7.68;;;6.13;;
30647;SDS011;17683;53.360;9.736;2022-08-07T07:04:54;6.75;;;5.50;;
30647;SDS011;17683;53.360;9.736;2022-08-07T07:07:20;7.68;;;5.53;;
30647;SDS011;17683;53.360;9.736;2022-08-07T07:09:46;8.20;;;6.20;;
30647;SDS011;17683;53.360;9.736;2022-08-07T07:13:00;7.43;;;5.82;;
30647;SDS011;17683;53.360;9.736;2022-08-07T07:15:12;7.50;;;5.07;;
30647;SDS011;17683;53.360;9.736;2022-08-07T07:20:28;7.47;;;6.05;;
30647;SDS011;17683;53.360;9.736;2022-08-07T07:23:08;6.07;;;4.53;;
30647;SDS011;17683;53.360;9.736;2022-08-07T07:25:36;8.35;;;5.05;;
30647;SDS011;17683;53.360;9.736;2022-08-07T07:30:59;6.32;;;4.88;;
30647;SDS011;17683;53.360;9.736;2022-08-07T07:33:27;7.07;;;5.05;;
30647;SDS011;17683;53.360;9.736;2022-08-07T07:35:56;4.53;;;4.07;;
30647;SDS011;17683;53.360;9.736;2022-08-07T07:38:22;8.63;;;5.15;;
30647;SDS011;17683;53.360;9.736;2022-08-07T07:40:55;6.35;;;4.85;;
30647;SDS011;17683;53.360;9.736;2022-08-07T07:43:22;7.40;;;5.05;;
30647;SDS011;17683;53.360;9.736;2022-08-07T07:45:50;7.80;;;4.97;;
30647;SDS011;17683;53.360;9.736;2022-08-07T07:48:19;7.70;;;5.45;;
30647;SDS011;17683;53.360;9.736;2022-08-07T07:50:49;6.45;;;4.97;;
30647;SDS011;17683;53.360;9.736;2022-08-07T07:53:16;6.63;;;5.07;;
30647;SDS011;17683;53.360;9.736;2022-08-07T07:55:44;6.60;;;5.90;;
30647;SDS011;17683;53.360;9.736;2022-08-07T07:58:10;6.05;;;4.80;;
30647;SDS011;17683;53.360;9.736;2022-08-07T08:00:37;8.10;;;5.68;;
30647;SDS011;17683;53.360;9.736;2022-08-07T08:03:06;9.05;;;5.60;;
30647;SDS011;17683;53.360;9.736;2022-08-07T08:05:38;6.05;;;5.45;;
30647;SDS011;17683;53.360;9.736;2022-08-07T08:08:05;11.48;;;5.20;;
30647;SDS011;17683;53.360;9.736;2022-08-07T08:10:33;6.68;;;5.45;;
30647;SDS011;17683;53.360;9.736;2022-08-07T08:13:00;8.85;;;5.72;;
30647;SDS011;17683;53.360;9.736;2022-08-07T08:15:27;6.78;;;5.40;;
30647;SDS011;17683;53.360;9.736;2022-08-07T08:17:57;6.20;;;4.90;;
30647;SDS011;17683;53.360;9.736;2022-08-07T08:20:25;6.75;;;5.50;;
30647;SDS011;17683;53.360;9.736;2022-08-07T08:22:53;5.05;;;4.65;;
30647;SDS011;17683;53.360;9.736;2022-08-07T08:25:39;6.13;;;5.53;;
30647;SDS011;17683;53.360;9.736;2022-08-07T08:28:26;6.45;;;4.72;;
30647;SDS011;17683;53.360;9.736;2022-08-07T08:30:57;6.07;;;4.38;;
30647;SDS011;17683;53.360;9.736;2022-08-07T08:33:26;4.60;;;4.15;;
30647;SDS011;17683;53.360;9.736;2022-08-07T08:35:55;6.88;;;5.35;;
30647;SDS011;17683;53.360;9.736;2022-08-07T08:38:24;6.20;;;5.00;;
30647;SDS011;17683;53.360;9.736;2022-08-07T08:41:12;5.35;;;4.85;;
30647;SDS011;17683;53.360;9.736;2022-08-07T08:44:13;6.22;;;5.43;;
30647;SDS011;17683;53.360;9.736;2022-08-07T08:47:01;6.55;;;4.88;;
30647;SDS011;17683;53.360;9.736;2022-08-07T08:55:09;6.80;;;4.50;;
30647;SDS011;17683;53.360;9.736;2022-08-07T08:57:45;6.03;;;4.60;;
30647;SDS011;17683;53.360;9.736;2022-08-07T09:00:19;7.07;;;4.78;;
30647;SDS011;17683;53.360;9.736;2022-08-07T09:02:55;8.13;;;5.50;;
30647;SDS011;17683;53.360;9.736;2022-08-07T09:08:37;6.00;;;4.72;;
30647;SDS011;17683;53.360;9.736;2022-08-07T09:11:18;6.25;;;4.55;;
30647;SDS011;17683;53.360;9.736;2022-08-07T09:14:11;6.20;;;5.00;;
30647;SDS011;17683;53.360;9.736;2022-08-07T09:20:04;10.95;;;5.25;;
30647;SDS011;17683;53.360;9.736;2022-08-07T09:25:20;7.72;;;5.10;;
30647;SDS011;17683;53.360;9.736;2022-08-07T09:28:04;6.70;;;5.25;;
30647;SDS011;17683;53.360;9.736;2022-08-07T09:36:23;6.30;;;5.70;;
30647;SDS011;17683;53.360;9.736;2022-08-07T09:41:29;6.35;;;5.63;;
30647;SDS011;17683;53.360;9.736;2022-08-07T09:52:29;7.78;;;5.30;;
30647;SDS011;17683;53.360;9.736;2022-08-07T09:55:21;7.00;;;5.88;;
30647;SDS011;17683;53.360;9.736;2022-08-07T10:03:43;6.35;;;4.82;;
30647;SDS011;17683;53.360;9.736;2022-08-07T10:17:33;7.15;;;5.43;;
30647;SDS011;17683;53.360;9.736;2022-08-07T10:31:56;6.05;;;5.20;;
30647;SDS011;17683;53.360;9.736;2022-08-07T10:42:41;6.85;;;5.05;;
30647;SDS011;17683;53.360;9.736;2022-08-07T10:48:05;5.63;;;4.70;;
30647;SDS011;17683;53.360;9.736;2022-08-07T10:50:38;5.88;;;3.97;;
30647;SDS011;17683;53.360;9.736;2022-08-07T11:10:02;5.68;;;4.55;;
30647;SDS011;17683;53.360;9.736;2022-08-07T11:12:37;4.60;;;4.18;;
30647;SDS011;17683;53.360;9.736;2022-08-07T11:15:13;4.53;;;4.07;;
30647;SDS011;17683;53.360;9.736;2022-08-07T11:17:51;6.97;;;4.20;;
30647;SDS011;17683;53.360;9.736;2022-08-07T11:23:26;6.25;;;4.07;;
30647;SDS011;17683;53.360;9.736;2022-08-07T11:26:09;4.80;;;4.30;;
30647;SDS011;17683;53.360;9.736;2022-08-07T11:28:57;5.07;;;4.57;;
30647;SDS011;17683;53.360;9.736;2022-08-07T11:31:40;4.93;;;4.45;;
30647;SDS011;17683;53.360;9.736;2022-08-07T11:34:30;6.32;;;4.30;;
30647;SDS011;17683;53.360;9.736;2022-08-07T11:40:17;4.95;;;4.15;;
30647;SDS011;17683;53.360;9.736;2022-08-07T11:59:44;4.97;;;3.90;;
30647;SDS011;17683;53.360;9.736;2022-08-07T12:05:18;4.93;;;3.40;;
30647;SDS011;17683;53.360;9.736;2022-08-07T12:08:06;6.90;;;4.63;;
30647;SDS011;17683;53.360;9.736;2022-08-07T12:10:39;4.70;;;4.20;;
30647;SDS011;17683;53.360;9.736;2022-08-07T12:13:14;4.95;;;3.80;;
30647;SDS011;17683;53.360;9.736;2022-08-07T12:16:20;5.70;;;4.15;;
30647;SDS011;17683;53.360;9.736;2022-08-07T12:31:57;4.30;;;3.90;;
30647;SDS011;17683;53.360;9.736;2022-08-07T12:34:39;4.20;;;3.47;;
30647;SDS011;17683;53.360;9.736;2022-08-07T12:37:07;5.05;;;3.97;;
30647;SDS011;17683;53.360;9.736;2022-08-07T12:39:35;4.47;;;3.40;;
30647;SDS011;17683;53.360;9.736;2022-08-07T12:42:02;4.72;;;4.20;;
30647;SDS011;17683;53.360;9.736;2022-08-07T12:44:30;5.00;;;3.88;;
30647;SDS011;17683;53.360;9.736;2022-08-07T12:47:08;8.07;;;4.20;;
30647;SDS011;17683;53.360;9.736;2022-08-07T12:49:58;4.38;;;3.80;;
30647;SDS011;17683;53.360;9.736;2022-08-07T12:52:44;4.82;;;4.07;;
30647;SDS011;17683;53.360;9.736;2022-08-07T12:55:21;6.32;;;3.80;;
30647;SDS011;17683;53.360;9.736;2022-08-07T12:57:51;4.95;;;4.07;;
30647;SDS011;17683;53.360;9.736;2022-08-07T13:00:22;6.10;;;3.67;;
30647;SDS011;17683;53.360;9.736;2022-08-07T13:03:11;4.68;;;4.10;;
30647;SDS011;17683;53.360;9.736;2022-08-07T13:17:11;6.18;;;3.60;;
30647;SDS011;17683;53.360;9.736;2022-08-07T13:19:42;5.05;;;4.00;;
30647;SDS011;17683;53.360;9.736;2022-08-07T13:22:33;4.60;;;3.67;;
30647;SDS011;17683;53.360;9.736;2022-08-07T13:25:05;6.03;;;3.80;;
30647;SDS011;17683;53.360;9.736;2022-08-07T13:27:36;4.22;;;3.40;;
30647;SDS011;17683;53.360;9.736;2022-08-07T13:30:08;4.07;;;3.50;;
30647;SDS011;17683;53.360;9.736;2022-08-07T13:37:58;5.00;;;4.50;;
30647;SDS011;17683;53.360;9.736;2022-08-07T13:40:41;6.95;;;4.22;;
30647;SDS011;17683;53.360;9.736;2022-08-07T13:43:16;4.82;;;3.75;;
30647;SDS011;17683;53.360;9.736;2022-08-07T13:45:44;6.63;;;4.15;;
30647;SDS011;17683;53.360;9.736;2022-08-07T13:48:16;4.93;;;4.10;;
30647;SDS011;17683;53.360;9.736;2022-08-07T13:50:47;5.43;;;4.18;;
30647;SDS011;17683;53.360;9.736;2022-08-07T13:53:22;4.25;;;3.85;;
30647;SDS011;17683;53.360;9.736;2022-08-07T13:55:52;4.35;;;3.95;;
30647;SDS011;17683;53.360;9.736;2022-08-07T13:58:20;4.95;;;4.20;;
30647;SDS011;17683;53.360;9.736;2022-08-07T14:01:11;4.22;;;3.75;;
30647;SDS011;17683;53.360;9.736;2022-08-07T14:03:38;4.63;;;3.40;;
30647;SDS011;17683;53.360;9.736;2022-08-07T14:06:06;4.63;;;3.80;;
30647;SDS011;17683;53.360;9.736;2022-08-07T14:08:35;4.90;;;4.40;;
30647;SDS011;17683;53.360;9.736;2022-08-07T14:11:07;6.85;;;4.40;;
30647;SDS011;17683;53.360;9.736;2022-08-07T14:13:36;5.00;;;3.95;;
30647;SDS011;17683;53.360;9.736;2022-08-07T14:16:06;6.47;;;3.95;;
30647;SDS011;17683;53.360;9.736;2022-08-07T14:18:38;7.07;;;4.05;;
30647;SDS011;17683;53.360;9.736;2022-08-07T14:21:10;5.80;;;3.38;;
30647;SDS011;17683;53.360;9.736;2022-08-07T14:23:46;5.75;;;3.50;;
30647;SDS011;17683;53.360;9.736;2022-08-07T14:26:22;5.43;;;3.63;;
30647;SDS011;17683;53.360;9.736;2022-08-07T14:28:52;3.83;;;3.53;;
30647;SDS011;17683;53.360;9.736;2022-08-07T14:31:22;5.57;;;3.80;;
30647;SDS011;17683;53.360;9.736;2022-08-07T14:33:49;3.30;;;3.00;;
30647;SDS011;17683;53.360;9.736;2022-08-07T14:36:18;4.70;;;3.67;;
30647;SDS011;17683;53.360;9.736;2022-08-07T14:38:46;6.35;;;3.60;;
30647;SDS011;17683;53.360;9.736;2022-08-07T14:41:16;4.47;;;3.78;;
30647;SDS011;17683;53.360;9.736;2022-08-07T14:43:49;5.00;;;4.00;;
30647;SDS011;17683;53.360;9.736;2022-08-07T14:46:17;4.07;;;3.60;;
30647;SDS011;17683;53.360;9.736;2022-08-07T14:48:45;5.65;;;4.35;;
30647;SDS011;17683;53.360;9.736;2022-08-07T14:51:13;8.60;;;4.72;;
30647;SDS011;17683;53.360;9.736;2022-08-07T14:53:44;3.95;;;3.55;;
30647;SDS011;17683;53.360;9.736;2022-08-07T14:56:11;5.90;;;3.67;;
30647;SDS011;17683;53.360;9.736;2022-08-07T14:58:42;4.40;;;4.00;;
30647;SDS011;17683;53.360;9.736;2022-08-07T15:01:12;5.22;;;4.00;;
30647;SDS011;17683;53.360;9.736;2022-08-07T15:03:41;3.75;;;3.42;;
30647;SDS011;17683;53.360;9.736;2022-08-07T15:06:08;4.80;;;3.97;;
30647;SDS011;17683;53.360;9.736;2022-08-07T15:08:42;4.15;;;3.65;;
30647;SDS011;17683;53.360;9.736;2022-08-07T15:11:14;4.00;;;3.60;;
30647;SDS011;17683;53.360;9.736;2022-08-07T15:13:51;6.75;;;3.88;;
30647;SDS011;17683;53.360;9.736;2022-08-07T15:16:27;3.60;;;3.30;;
30647;SDS011;17683;53.360;9.736;2022-08-07T15:19:00;5.32;;;3.85;;
30647;SDS011;17683;53.360;9.736;2022-08-07T15:21:30;4.10;;;3.70;;
30647;SDS011;17683;53.360;9.736;2022-08-07T15:24:01;4.75;;;4.00;;
30647;SDS011;17683;53.360;9.736;2022-08-07T15:26:35;6.28;;;4.10;;
30647;SDS011;17683;53.360;9.736;2022-08-07T15:29:06;7.05;;;4.30;;
30647;SDS011;17683;53.360;9.736;2022-08-07T15:31:35;4.20;;;3.80;;
30647;SDS011;17683;53.360;9.736;2022-08-07T15:34:01;4.85;;;4.35;;
30647;SDS011;17683;53.360;9.736;2022-08-07T15:36:29;4.68;;;4.20;;
30647;SDS011;17683;53.360;9.736;2022-08-07T15:39:00;4.28;;;3.63;;
30647;SDS011;17683;53.360;9.736;2022-08-07T15:41:31;5.28;;;4.40;;
30647;SDS011;17683;53.360;9.736;2022-08-07T15:44:21;5.70;;;4.10;;
30647;SDS011;17683;53.360;9.736;2022-08-07T15:46:54;4.57;;;3.92;;
30647;SDS011;17683;53.360;9.736;2022-08-07T15:49:27;3.92;;;3.63;;
30647;SDS011;17683;53.360;9.736;2022-08-07T15:51:54;5.85;;;4.00;;
30647;SDS011;17683;53.360;9.736;2022-08-07T15:54:21;4.95;;;4.28;;
30647;SDS011;17683;53.360;9.736;2022-08-07T15:56:48;4.95;;;4.47;;
30647;SDS011;17683;53.360;9.736;2022-08-07T15:59:15;5.13;;;3.85;;
30647;SDS011;17683;53.360;9.736;2022-08-07T16:01:50;3.95;;;3.55;;
30647;SDS011;17683;53.360;9.736;2022-08-07T16:04:18;4.88;;;4.07;;
30647;SDS011;17683;53.360;9.736;2022-08-07T16:31:51;5.70;;;4.00;;
30647;SDS011;17683;53.360;9.736;2022-08-07T16:37:24;5.72;;;3.92;;
30647;SDS011;17683;53.360;9.736;2022-08-07T16:59:51;10.65;;;4.38;;
30647;SDS011;17683;53.360;9.736;2022-08-07T17:08:12;4.38;;;3.80;;
30647;SDS011;17683;53.360;9.736;2022-08-07T17:10:33;5.60;;;4.32;;
30647;SDS011;17683;53.360;9.736;2022-08-07T17:19:02;5.35;;;3.55;;
30647;SDS011;17683;53.360;9.736;2022-08-07T17:21:45;4.78;;;3.97;;
30647;SDS011;17683;53.360;9.736;2022-08-07T17:26:51;5.68;;;4.10;;
30647;SDS011;17683;53.360;9.736;2022-08-07T17:32:17;6.07;;;4.10;;
30647;SDS011;17683;53.360;9.736;2022-08-07T17:34:48;6.20;;;4.30;;
30647;SDS011;17683;53.360;9.736;2022-08-07T17:40:13;5.70;;;4.05;;
30647;SDS011;17683;53.360;9.736;2022-08-07T17:43:02;4.07;;;3.67;;
30647;SDS011;17683;53.360;9.736;2022-08-07T17:45:43;5.10;;;3.80;;
30647;SDS011;17683;53.360;9.736;2022-08-07T17:48:21;4.32;;;3.53;;
30647;SDS011;17683;53.360;9.736;2022-08-07T17:51:06;6.18;;;3.70;;
30647;SDS011;17683;53.360;9.736;2022-08-07T17:56:23;3.55;;;3.20;;
30647;SDS011;17683;53.360;9.736;2022-08-07T18:01:23;3.88;;;3.15;;
30647;SDS011;17683;53.360;9.736;2022-08-07T18:06:47;4.90;;;3.33;;
30647;SDS011;17683;53.360;9.736;2022-08-07T18:09:22;3.50;;;3.17;;
30647;SDS011;17683;53.360;9.736;2022-08-07T18:12:09;4.32;;;3.15;;
30647;SDS011;17683;53.360;9.736;2022-08-07T18:15:00;5.78;;;3.70;;
30647;SDS011;17683;53.360;9.736;2022-08-07T18:20:32;5.25;;;3.55;;
30647;SDS011;17683;53.360;9.736;2022-08-07T18:23:10;5.30;;;3.63;;
30647;SDS011;17683;53.360;9.736;2022-08-07T18:25:42;4.20;;;3.38;;
30647;SDS011;17683;53.360;9.736;2022-08-07T18:30:58;3.90;;;3.33;;
30647;SDS011;17683;53.360;9.736;2022-08-07T18:36:38;4.50;;;3.20;;
30647;SDS011;17683;53.360;9.736;2022-08-07T18:39:13;3.72;;;3.40;;
30647;SDS011;17683;53.360;9.736;2022-08-07T18:44:42;3.47;;;3.13;;
30647;SDS011;17683;53.360;9.736;2022-08-07T18:47:36;5.05;;;3.45;;
30647;SDS011;17683;53.360;9.736;2022-08-07T19:00:51;5.18;;;4.18;;
30647;SDS011;17683;53.360;9.736;2022-08-07T19:06:11;5.47;;;3.70;;
30647;SDS011;17683;53.360;9.736;2022-08-07T19:11:18;9.57;;;3.95;;
30647;SDS011;17683;53.360;9.736;2022-08-07T19:16:36;5.78;;;4.22;;
30647;SDS011;17683;53.360;9.736;2022-08-07T19:25:23;8.05;;;4.15;;
30647;SDS011;17683;53.360;9.736;2022-08-07T19:27:50;4.97;;;4.10;;
30647;SDS011;17683;53.360;9.736;2022-08-07T19:30:18;4.88;;;4.38;;
30647;SDS011;17683;53.360;9.736;2022-08-07T19:32:44;4.78;;;4.10;;
30647;SDS011;17683;53.360;9.736;2022-08-07T19:35:18;5.57;;;3.78;;
30647;SDS011;17683;53.360;9.736;2022-08-07T19:37:51;5.20;;;3.65;;
30647;SDS011;17683;53.360;9.736;2022-08-07T19:40:19;5.13;;;4.63;;
30647;SDS011;17683;53.360;9.736;2022-08-07T19:42:47;5.82;;;4.78;;
30647;SDS011;17683;53.360;9.736;2022-08-07T19:45:14;8.68;;;4.30;;
30647;SDS011;17683;53.360;9.736;2022-08-07T19:47:47;4.47;;;3.85;;